°C

Conditions at local time : on    Forecast:

Nearby METAR Reports

EGKA - Shoreham-By-Sea, United Kingdom
Distance from station: ENE 4mi, 6km
Updated: Sun, 29-Mar-2020 5:50pm BST
Light rain, Showers, Partly cloudy
Light rain, Showers, Partly cloudy
 Wind from NNE
Wind: NNE 22 mph , 35 km/h, Gust: 33 mph , 54 km/h
Temperature: 6°C
Wind Chill: 1°C
Dew Point: -1°C
Humidity: 61%
Barometer: 1036 hPa
Summary: Light rain, Showers
Clouds: Partly Cloudy
Visibility: 6 miles , 10 km
Cloud details: Few Clouds 610 m
Partly Cloudy 1372 m
2020/03/29 16:50 EGKA 291650Z 02019G29KT 9999 -SHRA FEW020 SCT045 06/M01 Q1036
EGKK - London/Gatwick A, United Kingdom
Distance from station: NNE 24mi, 39km
Updated: Sun, 29-Mar-2020 6:20pm BST
Clear
Clear
 Wind from NNE
Wind: NNE 20 mph , 31 km/h
Temperature: 5°C
Wind Chill: 0°C
Dew Point: -5°C
Humidity: 49%
Barometer: 1037 hPa
Summary: Clear
Visibility: greater than 7 miles , 10 km
2020/03/29 17:20 EGKK 291720Z 03017KT CAVOK 05/M05 Q1037
 
EGLF - Farnborough, United Kingdom
Distance from station: NNW 37mi, 59km
Updated: Sun, 29-Mar-2020 6:20pm BST
Clear
Clear
 Wind from NNE
Wind: NNE 22 mph , 35 km/h, Gust: 33 mph , 54 km/h
Temperature: 6°C
Wind Chill: 1°C
Dew Point: -7°C
Humidity: 39%
Barometer: 1038 hPa
Clouds: Clear
Visibility: 6 miles , 10 km
2020/03/29 17:20 EGLF 291720Z AUTO 02019G29KT 340V050 9999 NCD 06/M07 Q1038
EGVO - Odiham Raf, United Kingdom
Distance from station: NW 38mi, 61km
Updated: Sun, 29-Mar-2020 5:50pm BST
Mostly Cloudy
Mostly Cloudy
 Wind from NNE
Wind: NNE 22 mph , 35 km/h
Temperature: 6°C
Wind Chill: 1°C
Dew Point: -6°C
Humidity: 42%
Barometer: 1037 hPa
Clouds: Mostly Cloudy
Visibility: 6 miles , 10 km
Cloud details: Mostly Cloudy 1524 m
2020/03/29 16:50 EGVO 291650Z AUTO 02019KT 9999 BKN050/// 06/M06 Q1037